createdAt,value
2019-04-21T00:02:37.707Z,90.70
2019-04-21T00:05:57.194Z,91.30
2019-04-21T00:09:09.348Z,91.60
2019-04-21T00:12:02.513Z,91.90
2019-04-21T00:14:55.644Z,92.30
2019-04-21T00:17:52.718Z,92.90
2019-04-21T00:20:56.252Z,92.80
2019-04-21T00:24:25.008Z,91.90
2019-04-21T00:27:32.413Z,91.50
2019-04-21T00:30:41.148Z,92.10
2019-04-21T00:33:27.890Z,91.50
2019-04-21T00:36:29.428Z,92.60
2019-04-21T00:39:55.777Z,94.30
2019-04-21T00:42:43.206Z,99.90
2019-04-21T00:45:42.235Z,99.90
2019-04-21T00:48:53.450Z,99.90
2019-04-21T00:58:26.816Z,99.90
2019-04-21T01:01:19.788Z,99.90
2019-04-21T01:04:23.504Z,99.90
2019-04-21T01:07:31.989Z,99.90
2019-04-21T01:10:33.221Z,99.90
2019-04-21T01:13:51.772Z,99.90
2019-04-21T01:17:03.843Z,99.90
2019-04-21T01:20:01.460Z,99.90
2019-04-21T01:22:58.278Z,99.90
2019-04-21T01:26:18.015Z,99.90
2019-04-21T01:29:44.124Z,99.90
2019-04-21T01:32:51.236Z,99.90
2019-04-21T01:35:54.890Z,99.90
2019-04-21T01:39:11.720Z,99.90
2019-04-21T01:42:18.830Z,99.90
2019-04-21T01:45:27.945Z,99.90
2019-04-21T01:48:33.314Z,99.90
2019-04-21T01:55:36.769Z,99.90
2019-04-21T02:05:06.516Z,99.90
2019-04-21T02:08:09.700Z,99.90
2019-04-21T02:11:17.552Z,99.90
2019-04-21T02:14:31.182Z,99.90
2019-04-21T02:17:34.244Z,99.90
2019-04-21T02:20:35.557Z,99.90
2019-04-21T02:23:52.951Z,99.90
2019-04-21T02:26:46.707Z,99.90
2019-04-21T02:29:48.664Z,99.90
2019-04-21T02:33:19.651Z,99.90
2019-04-21T02:36:20.675Z,99.90
2019-04-21T02:42:15.783Z,99.90
2019-04-21T02:45:12.859Z,99.90
2019-04-21T02:48:22.497Z,99.90
2019-04-21T02:51:19.611Z,99.90
2019-04-21T02:54:40.627Z,99.90
2019-04-21T03:07:09.401Z,99.90
2019-04-21T03:10:00.086Z,99.90
2019-04-21T03:16:17.130Z,99.90
2019-04-21T03:19:15.348Z,99.90
2019-04-21T03:22:20.734Z,99.90
2019-04-21T03:25:30.369Z,99.90
2019-04-21T03:28:22.638Z,99.90
2019-04-21T03:34:57.541Z,99.90
2019-04-21T03:37:35.426Z,99.90
2019-04-21T03:40:32.955Z,99.90
2019-04-21T03:47:04.397Z,99.90
2019-04-21T03:50:16.278Z,99.90
2019-04-21T03:53:18.637Z,99.90
2019-04-21T03:56:52.242Z,99.90
2019-04-21T03:59:38.207Z,99.90
2019-04-21T04:03:28.383Z,99.90
2019-04-21T04:06:33.983Z,99.90
2019-04-21T04:13:23.467Z,99.90
2019-04-21T04:19:26.372Z,99.90
2019-04-21T04:37:38.371Z,99.90
2019-04-21T04:44:31.434Z,99.90
2019-04-21T04:47:20.287Z,99.90
2019-04-21T04:50:22.025Z,99.90
2019-04-21T04:53:40.612Z,99.90
2019-04-21T04:56:29.142Z,99.90
2019-04-21T04:59:43.095Z,99.90
2019-04-21T05:02:48.948Z,99.90
2019-04-21T05:06:37.410Z,99.90
2019-04-21T05:09:27.074Z,99.90
2019-04-21T05:15:41.687Z,99.90
2019-04-21T05:19:03.818Z,99.90
2019-04-21T05:21:55.370Z,99.90
2019-04-21T05:24:49.382Z,99.90
2019-04-21T05:27:47.287Z,99.90
2019-04-21T05:34:26.963Z,99.90
2019-04-21T05:40:28.733Z,99.90
2019-04-21T05:43:51.379Z,99.90
2019-04-21T05:46:46.782Z,99.90
2019-04-21T05:52:53.594Z,99.90
2019-04-21T05:56:06.193Z,99.90
2019-04-21T05:59:03.467Z,99.90
2019-04-21T06:02:20.889Z,99.90
2019-04-21T06:05:23.128Z,99.90
2019-04-21T06:08:17.954Z,99.90
2019-04-21T06:11:17.890Z,99.90
2019-04-21T06:14:20.256Z,99.90
2019-04-21T06:17:29.779Z,99.90
2019-04-21T06:20:28.794Z,99.90
2019-04-21T06:23:30.097Z,99.90
2019-04-21T06:26:50.409Z,99.90
2019-04-21T06:29:42.087Z,99.90
2019-04-21T06:32:46.810Z,99.90
2019-04-21T06:39:31.811Z,99.90
2019-04-21T06:42:13.526Z,99.90
2019-04-21T06:45:31.460Z,99.90
2019-04-21T06:48:26.195Z,99.90
2019-04-21T06:51:27.204Z,99.90
2019-04-21T06:57:35.454Z,99.90
2019-04-21T07:00:33.095Z,99.90
2019-04-21T07:03:45.562Z,99.90
2019-04-21T07:06:45.706Z,99.90
2019-04-21T07:09:46.682Z,99.90
2019-04-21T07:12:49.728Z,99.90
2019-04-21T07:15:52.997Z,99.90
2019-04-21T07:19:01.377Z,99.90
2019-04-21T07:21:51.308Z,99.90
2019-04-21T07:24:58.977Z,99.90
2019-04-21T07:28:01.189Z,99.90
2019-04-21T07:31:03.743Z,99.90
2019-04-21T07:34:07.826Z,99.90
2019-04-21T07:37:06.000Z,99.90
2019-04-21T07:40:05.171Z,99.90
2019-04-21T07:43:05.554Z,99.90
2019-04-21T07:46:06.473Z,99.90
2019-04-21T07:49:41.548Z,99.90
2019-04-21T07:52:49.012Z,99.90
2019-04-21T07:58:58.277Z,99.90
2019-04-21T08:02:02.381Z,99.90
2019-04-21T08:08:21.122Z,99.90
2019-04-21T08:11:28.129Z,99.90
2019-04-21T08:14:48.275Z,99.90
2019-04-21T08:17:56.646Z,99.90
2019-04-21T08:20:54.438Z,99.90
2019-04-21T08:23:41.585Z,99.90
2019-04-21T08:27:00.163Z,99.90
2019-04-21T08:30:09.025Z,99.90
2019-04-21T08:36:30.932Z,99.90
2019-04-21T08:39:37.314Z,99.90
2019-04-21T08:42:46.681Z,99.90
2019-04-21T08:45:52.755Z,99.90
2019-04-21T08:52:09.854Z,99.90
2019-04-21T08:55:31.823Z,99.90
2019-04-21T08:59:03.776Z,99.90
2019-04-21T09:02:31.855Z,99.90
2019-04-21T09:05:37.730Z,99.90
2019-04-21T09:08:47.514Z,99.90
2019-04-21T09:11:59.656Z,99.90
2019-04-21T09:15:21.649Z,99.90
2019-04-21T09:18:15.757Z,99.90
2019-04-21T09:21:19.471Z,99.90
2019-04-21T09:24:22.249Z,99.90
2019-04-21T09:27:20.641Z,99.90
2019-04-21T09:30:10.798Z,99.90
2019-04-21T09:33:11.652Z,99.10
2019-04-21T09:36:15.448Z,97.80
2019-04-21T09:39:20.088Z,97.50
2019-04-21T09:42:19.799Z,97.50
2019-04-21T09:45:22.541Z,95.30
2019-04-21T09:48:25.877Z,95.10
2019-04-21T09:51:25.992Z,94.70
2019-04-21T09:54:30.919Z,94.20
2019-04-21T09:57:40.660Z,92.90
2019-04-21T10:00:43.498Z,93.40
2019-04-21T10:03:41.313Z,91.70
2019-04-21T10:06:43.133Z,90.70
2019-04-21T10:09:52.516Z,89.30
2019-04-21T10:13:02.891Z,88.00
2019-04-21T10:16:32.048Z,84.20
2019-04-21T10:19:41.886Z,83.10
2019-04-21T10:22:42.773Z,78.70
2019-04-21T10:25:43.481Z,77.10
2019-04-21T10:28:44.325Z,73.30
2019-04-21T10:31:45.257Z,76.10
2019-04-21T10:34:47.410Z,71.40
2019-04-21T10:38:01.294Z,67.90
2019-04-21T10:40:51.757Z,68.20
2019-04-21T10:43:41.010Z,68.10
2019-04-21T10:46:52.141Z,69.00
2019-04-21T10:50:00.474Z,66.10
2019-04-21T10:56:44.067Z,65.00
2019-04-21T10:59:54.075Z,60.60
2019-04-21T11:03:20.778Z,61.50
2019-04-21T11:09:42.355Z,59.50
2019-04-21T11:12:52.663Z,59.00
2019-04-21T11:16:01.558Z,58.50
2019-04-21T11:19:09.595Z,57.60
2019-04-21T11:22:10.630Z,57.60
2019-04-21T11:25:12.761Z,58.40
2019-04-21T11:28:14.452Z,57.50
2019-04-21T11:31:15.225Z,56.50
2019-04-21T11:34:23.557Z,56.80
2019-04-21T11:40:47.551Z,57.00
2019-04-21T11:43:57.221Z,56.00
2019-04-21T11:50:23.261Z,53.00
2019-04-21T11:53:32.877Z,54.30
2019-04-21T11:56:43.096Z,55.20
2019-04-21T11:59:51.458Z,53.20
2019-04-21T12:02:59.603Z,50.50
2019-04-21T12:06:09.046Z,52.10
2019-04-21T12:09:18.839Z,52.70
2019-04-21T12:12:27.516Z,52.80
2019-04-21T12:15:36.940Z,50.80
2019-04-21T12:18:45.151Z,50.10
2019-04-21T12:22:00.393Z,49.90
2019-04-21T12:24:51.287Z,49.70
2019-04-21T12:27:52.353Z,51.10
2019-04-21T12:30:53.906Z,48.30
2019-04-21T12:33:58.165Z,48.30
2019-04-21T12:36:59.109Z,49.80
2019-04-21T12:40:00.844Z,49.80
2019-04-21T12:43:02.890Z,47.60
2019-04-21T12:46:04.200Z,47.40
2019-04-21T12:49:05.547Z,46.90
2019-04-21T12:52:06.418Z,46.20
2019-04-21T12:55:07.350Z,46.30
2019-04-21T12:58:08.381Z,45.80
2019-04-21T13:01:09.375Z,46.00
2019-04-21T13:04:10.353Z,45.30
2019-04-21T13:07:10.962Z,45.90
2019-04-21T13:10:12.716Z,46.00
2019-04-21T13:13:14.353Z,46.30
2019-04-21T13:16:15.640Z,45.20
2019-04-21T13:19:17.387Z,45.30
2019-04-21T13:22:18.546Z,46.70
2019-04-21T13:25:20.092Z,46.40
2019-04-21T13:28:20.825Z,44.90
2019-04-21T13:31:22.347Z,45.70
2019-04-21T13:34:24.111Z,44.30
2019-04-21T13:37:25.648Z,45.60
2019-04-21T13:41:02.437Z,45.60
2019-04-21T13:43:50.768Z,45.20
2019-04-21T13:46:52.524Z,45.10
2019-04-21T13:49:55.950Z,46.20
2019-04-21T13:52:56.556Z,43.90
2019-04-21T13:55:58.508Z,44.80
2019-04-21T13:59:00.026Z,44.50
2019-04-21T14:02:00.372Z,44.10
2019-04-21T14:05:11.808Z,43.70
2019-04-21T14:08:18.897Z,44.40
2019-04-21T14:11:29.291Z,44.00
2019-04-21T14:14:38.617Z,45.10
2019-04-21T14:17:48.992Z,43.00
2019-04-21T14:20:51.251Z,43.30
2019-04-21T14:23:54.135Z,43.00
2019-04-21T14:26:56.192Z,43.80
2019-04-21T14:29:57.687Z,44.80
2019-04-21T14:32:58.463Z,43.10
2019-04-21T14:35:59.154Z,42.80
2019-04-21T14:39:00.648Z,42.90
2019-04-21T14:42:02.285Z,43.50
2019-04-21T14:45:03.290Z,43.00
2019-04-21T14:48:23.263Z,42.40
2019-04-21T14:51:45.400Z,43.10
2019-04-21T14:54:56.315Z,42.30
2019-04-21T14:57:57.478Z,42.10
2019-04-21T15:00:58.122Z,42.60
2019-04-21T15:03:59.785Z,40.80
2019-04-21T15:07:01.355Z,42.30
2019-04-21T15:10:10.908Z,42.10
2019-04-21T15:13:05.695Z,41.70
2019-04-21T15:16:06.872Z,41.40
2019-04-21T15:19:08.634Z,42.10
2019-04-21T15:22:10.267Z,42.00
2019-04-21T15:25:12.015Z,42.10
2019-04-21T15:28:13.791Z,42.50
2019-04-21T15:31:23.085Z,43.50
2019-04-21T15:34:17.658Z,41.50
2019-04-21T15:37:18.221Z,42.00
2019-04-21T15:40:30.236Z,42.90
2019-04-21T15:43:22.406Z,42.60
2019-04-21T15:46:24.709Z,42.60
2019-04-21T15:49:40.539Z,42.60
2019-04-21T15:52:31.839Z,43.10
2019-04-21T15:59:22.084Z,42.40
2019-04-21T16:02:42.525Z,42.20
2019-04-21T16:05:44.527Z,41.90
2019-04-21T16:08:49.652Z,42.10
2019-04-21T16:11:49.703Z,42.60
2019-04-21T16:14:50.288Z,43.40
2019-04-21T16:17:59.372Z,42.80
2019-04-21T16:21:02.062Z,43.10
2019-04-21T16:24:04.487Z,42.20
2019-04-21T16:27:08.692Z,42.60
2019-04-21T16:30:09.927Z,42.80
2019-04-21T16:32:59.876Z,43.70
2019-04-21T16:36:11.468Z,42.70
2019-04-21T16:39:19.626Z,42.30
2019-04-21T16:42:28.101Z,43.00
2019-04-21T16:45:37.005Z,42.90
2019-04-21T16:48:46.037Z,42.50
2019-04-21T16:52:16.112Z,42.60
2019-04-21T16:55:44.879Z,43.50
2019-04-21T16:58:57.161Z,42.70
2019-04-21T17:02:05.176Z,43.40
2019-04-21T17:05:14.377Z,43.90
2019-04-21T17:08:24.011Z,44.40
2019-04-21T17:11:35.350Z,44.40
2019-04-21T17:14:57.135Z,44.00
2019-04-21T17:18:10.377Z,45.00
2019-04-21T17:20:58.899Z,45.00
2019-04-21T17:23:58.708Z,45.40
2019-04-21T17:26:59.974Z,45.40
2019-04-21T17:30:01.203Z,45.90
2019-04-21T17:33:03.564Z,46.30
2019-04-21T17:36:04.951Z,46.70
2019-04-21T17:39:06.844Z,46.80
2019-04-21T17:42:18.537Z,47.50
2019-04-21T17:45:17.174Z,48.10
2019-04-21T17:48:27.144Z,48.50
2019-04-21T17:55:27.192Z,49.20
2019-04-21T18:02:21.289Z,49.80
2019-04-21T18:05:29.446Z,50.20
2019-04-21T18:08:36.357Z,50.40
2019-04-21T18:11:46.584Z,50.70
2019-04-21T18:14:55.519Z,51.10
2019-04-21T18:17:52.397Z,51.80
2019-04-21T18:27:21.932Z,52.30
2019-04-21T18:34:13.798Z,53.00
2019-04-21T18:40:55.814Z,53.90
2019-04-21T18:50:50.981Z,55.00
2019-04-21T18:54:28.929Z,55.70
2019-04-21T18:57:33.103Z,55.20
2019-04-21T19:04:17.746Z,55.70
2019-04-21T19:07:19.877Z,56.00
2019-04-21T19:10:40.663Z,56.10
2019-04-21T19:14:23.556Z,56.50
2019-04-21T19:20:26.135Z,57.40
2019-04-21T19:23:41.719Z,57.50
2019-04-21T19:26:42.407Z,57.30
2019-04-21T19:29:35.414Z,58.00
2019-04-21T19:32:25.616Z,58.30
2019-04-21T19:35:19.413Z,58.80
2019-04-21T19:38:32.808Z,57.80
2019-04-21T19:41:50.755Z,59.10
2019-04-21T19:45:05.646Z,59.00
2019-04-21T19:48:12.286Z,59.10
2019-04-21T19:51:22.018Z,59.00
2019-04-21T19:54:25.212Z,59.00
2019-04-21T19:57:07.219Z,59.10
2019-04-21T20:00:17.155Z,59.80
2019-04-21T20:06:51.844Z,59.10
2019-04-21T20:10:18.711Z,60.00
2019-04-21T20:12:56.895Z,59.20
2019-04-21T20:16:06.808Z,59.20
2019-04-21T20:19:02.956Z,59.70
2019-04-21T20:22:01.117Z,59.00
2019-04-21T20:25:08.261Z,59.40
2019-04-21T20:28:13.289Z,59.30
2019-04-21T20:31:23.664Z,59.90
2019-04-21T20:34:33.604Z,60.00
2019-04-21T20:37:32.072Z,60.00
2019-04-21T20:40:25.005Z,59.90
2019-04-21T20:43:36.496Z,60.60
2019-04-21T20:46:41.375Z,60.90
2019-04-21T20:49:33.585Z,61.30
2019-04-21T20:52:54.074Z,61.30
2019-04-21T20:55:54.258Z,61.40
2019-04-21T20:59:07.768Z,61.50
2019-04-21T21:02:19.024Z,61.70
2019-04-21T21:05:24.776Z,61.90
2019-04-21T21:08:43.444Z,62.50
2019-04-21T21:11:56.763Z,61.90
2019-04-21T21:14:48.965Z,62.60
2019-04-21T21:18:15.634Z,62.30
2019-04-21T21:21:15.154Z,62.70
2019-04-21T21:24:33.166Z,62.70
2019-04-21T21:27:35.116Z,62.90
2019-04-21T21:30:37.534Z,62.40
2019-04-21T21:37:16.083Z,64.00
2019-04-21T21:39:57.131Z,63.20
2019-04-21T21:42:49.374Z,62.00
2019-04-21T21:46:01.598Z,63.20
2019-04-21T21:49:26.334Z,64.00
2019-04-21T21:52:34.369Z,64.40
2019-04-21T21:55:27.780Z,64.30
2019-04-21T21:58:42.179Z,64.80
2019-04-21T22:01:51.844Z,65.60
2019-04-21T22:05:06.689Z,65.90
2019-04-21T22:08:06.818Z,65.70
2019-04-21T22:11:16.257Z,64.90
2019-04-21T22:14:32.655Z,64.20
2019-04-21T22:17:49.622Z,63.00
2019-04-21T22:20:59.104Z,64.40
2019-04-21T22:23:56.912Z,64.10
2019-04-21T22:26:36.988Z,64.70
2019-04-21T22:29:51.452Z,64.30
2019-04-21T22:33:02.404Z,64.80
2019-04-21T22:36:21.046Z,64.30
2019-04-21T22:39:36.159Z,65.80
2019-04-21T22:42:29.593Z,65.80
2019-04-21T22:45:35.683Z,65.00
2019-04-21T22:48:52.087Z,64.50
2019-04-21T22:51:55.703Z,63.70
2019-04-21T22:55:11.905Z,63.70
2019-04-21T22:58:15.882Z,63.30
2019-04-21T23:01:33.401Z,63.10
2019-04-21T23:04:15.925Z,64.10
2019-04-21T23:07:26.144Z,63.70
2019-04-21T23:10:34.952Z,62.80
2019-04-21T23:13:45.124Z,63.20
2019-04-21T23:20:47.965Z,63.00
2019-04-21T23:23:53.164Z,63.80
2019-04-21T23:26:37.587Z,63.60
2019-04-21T23:30:11.701Z,63.70
2019-04-21T23:32:50.476Z,63.80
2019-04-21T23:35:49.528Z,65.00
2019-04-21T23:42:32.422Z,64.90
2019-04-21T23:45:39.239Z,65.80
2019-04-21T23:48:36.511Z,65.00
2019-04-21T23:51:45.178Z,65.90
2019-04-21T23:54:45.457Z,66.50
2019-04-21T23:58:05.003Z,66.50
